Time;durP1;ratioP1;P1;durP2;ratioP2;P2;SDS_P1;SDS_P2;PMS_P1;PMS_P2;Temp;Humidity;BMP_temperature;BMP_pressure;BME280_temperature;BME280_humidity;BME280_pressure;Samples;Min_cycle;Max_cycle;Signal;HPM_P1;HPM_P2
2021/11/02 00:00:31;;;;;;;3.95;1.45;;;;;;;;;;5036482;28;20025;-44
2021/11/02 00:02:56;;;;;;;5.78;1.17;;;;;;;;;;5033189;28;20129;-41
2021/11/02 00:05:22;;;;;;;1.13;0.35;;;;;;;;;;5035928;28;20455;-47
2021/11/02 00:07:47;;;;;;;6.97;1.40;;;;;;;;;;5033967;28;20078;-46
2021/11/02 00:10:13;;;;;;;1.73;0.93;;;;;;;;;;5036981;28;20018;-42
2021/11/02 00:12:39;;;;;;;2.30;0.93;;;;;;;;;;5035642;28;20492;-44
2021/11/02 00:15:04;;;;;;;6.10;1.38;;;;;;;;;;5035748;28;20029;-42
2021/11/02 00:17:32;;;;;;;2.75;1.25;;;;;;;;;;5039233;28;20036;-45
2021/11/02 00:20:00;;;;;;;1.73;0.85;;;;;;;;;;5036941;28;20096;-46
2021/11/02 00:22:27;;;;;;;3.40;1.63;;;;;;;;;;5036970;28;20020;-43
2021/11/02 00:27:18;;;;;;;1.88;1.23;;;;;;;;;;5034082;28;20612;-42
2021/11/02 00:29:44;;;;;;;3.28;1.45;;;;;;;;;;5031445;28;20607;-45
2021/11/02 00:32:10;;;;;;;4.80;1.13;;;;;;;;;;5037395;28;20040;-47
2021/11/02 00:34:35;;;;;;;9.00;2.53;;;;;;;;;;5034245;28;20052;-41
2021/11/02 00:37:00;;;;;;;10.40;2.50;;;;;;;;;;5035765;28;20065;-42
2021/11/02 00:39:26;;;;;;;2.95;1.40;;;;;;;;;;5034907;28;20487;-42
2021/11/02 00:41:51;;;;;;;5.82;2.53;;;;;;;;;;5034068;28;20606;-43
2021/11/02 00:44:18;;;;;;;9.73;4.20;;;;;;;;;;5031840;28;20806;-43
2021/11/02 00:46:43;;;;;;;5.30;3.00;;;;;;;;;;5034587;28;20065;-41
2021/11/02 00:49:16;;;;;;;5.88;4.10;;;;;;;;;;5031905;28;20073;-42
2021/11/02 00:51:42;;;;;;;6.50;4.38;;;;;;;;;;5034380;28;20238;-51
2021/11/02 00:54:07;;;;;;;6.68;3.42;;;;;;;;;;5035089;28;20461;-48
2021/11/02 00:56:32;;;;;;;6.63;4.10;;;;;;;;;;5035472;28;20017;-46
2021/11/02 00:58:58;;;;;;;4.78;3.33;;;;;;;;;;5033829;28;20660;-44
2021/11/02 01:01:23;;;;;;;5.78;4.38;;;;;;;;;;5033523;28;20018;-43
2021/11/02 01:03:48;;;;;;;9.60;5.38;;;;;;;;;;5029197;28;20025;-45
2021/11/02 01:06:14;;;;;;;6.13;4.03;;;;;;;;;;5032525;28;20025;-44
2021/11/02 01:08:39;;;;;;;5.13;3.15;;;;;;;;;;5035846;28;20036;-42
2021/11/02 01:11:04;;;;;;;3.90;2.47;;;;;;;;;;5034073;28;20025;-42
2021/11/02 01:13:30;;;;;;;3.75;2.40;;;;;;;;;;5036553;28;20545;-42
2021/11/02 01:15:55;;;;;;;4.25;1.58;;;;;;;;;;5036088;28;20485;-44
2021/11/02 01:18:20;;;;;;;3.00;1.77;;;;;;;;;;5035291;28;20018;-48
2021/11/02 01:20:46;;;;;;;4.80;3.00;;;;;;;;;;5036336;28;20126;-44
2021/11/02 01:23:12;;;;;;;8.60;1.60;;;;;;;;;;5033648;28;20180;-45
2021/11/02 01:25:38;;;;;;;6.63;2.10;;;;;;;;;;5034586;28;20029;-44
2021/11/02 01:28:03;;;;;;;3.55;2.10;;;;;;;;;;5039071;28;20555;-42
2021/11/02 01:30:29;;;;;;;4.85;2.22;;;;;;;;;;5035106;28;20024;-44
2021/11/02 01:32:54;;;;;;;2.95;1.55;;;;;;;;;;5038262;28;20035;-42
2021/11/02 01:35:19;;;;;;;2.47;1.75;;;;;;;;;;5038112;28;20496;-43
2021/11/02 01:37:46;;;;;;;2.88;1.67;;;;;;;;;;5035279;28;20073;-44
2021/11/02 01:40:13;;;;;;;3.47;1.08;;;;;;;;;;5036969;28;20021;-42
2021/11/02 01:42:39;;;;;;;4.43;1.35;;;;;;;;;;5039491;28;20018;-43
2021/11/02 01:45:05;;;;;;;6.32;1.15;;;;;;;;;;5037455;28;20048;-45
2021/11/02 01:47:32;;;;;;;5.10;0.85;;;;;;;;;;5036112;28;20649;-43
2021/11/02 01:49:57;;;;;;;1.58;0.73;;;;;;;;;;5038065;28;20033;-43
2021/11/02 01:52:23;;;;;;;3.25;1.42;;;;;;;;;;5040227;28;20022;-42
2021/11/02 01:54:48;;;;;;;4.30;1.67;;;;;;;;;;5037711;28;20358;-42
2021/11/02 01:57:15;;;;;;;6.25;1.60;;;;;;;;;;5038813;28;20029;-47
2021/11/02 01:59:41;;;;;;;3.15;1.67;;;;;;;;;;5035971;28;20083;-45
2021/11/02 02:02:29;;;;;;;4.85;1.30;;;;;;;;;;5037895;28;20021;-47
2021/11/02 02:04:54;;;;;;;1.27;0.73;;;;;;;;;;5037408;28;20018;-41
2021/11/02 02:07:32;;;;;;;2.33;1.00;;;;;;;;;;5037404;28;20031;-41
2021/11/02 02:10:07;;;;;;;0.80;0.55;;;;;;;;;;5036633;28;20023;-42
2021/11/02 02:12:34;;;;;;;4.07;1.45;;;;;;;;;;5035104;28;20025;-41
2021/11/02 02:15:02;;;;;;;1.83;0.65;;;;;;;;;;5036787;28;20029;-43
2021/11/02 02:17:31;;;;;;;0.85;0.45;;;;;;;;;;5039469;28;20401;-47
2021/11/02 02:19:58;;;;;;;3.00;1.23;;;;;;;;;;5038847;28;20017;-44
2021/11/02 02:22:24;;;;;;;3.55;1.10;;;;;;;;;;5039776;28;20629;-40
2021/11/02 02:25:00;;;;;;;4.90;1.73;;;;;;;;;;5035047;28;20043;-41
2021/11/02 02:27:32;;;;;;;2.90;0.52;;;;;;;;;;5038008;28;20028;-43
2021/11/02 02:29:59;;;;;;;1.40;0.68;;;;;;;;;;5038085;28;20046;-42
2021/11/02 02:32:26;;;;;;;2.15;0.68;;;;;;;;;;5038684;28;20392;-41
2021/11/02 02:34:52;;;;;;;7.20;0.70;;;;;;;;;;5038702;28;20040;-43
2021/11/02 02:37:19;;;;;;;2.72;1.13;;;;;;;;;;5039464;28;20021;-41
2021/11/02 02:39:46;;;;;;;4.45;2.22;;;;;;;;;;5034611;28;20013;-41
2021/11/02 02:42:12;;;;;;;1.33;0.50;;;;;;;;;;5039561;28;20028;-41
2021/11/02 02:44:37;;;;;;;3.75;0.77;;;;;;;;;;5040258;28;20017;-41
2021/11/02 02:47:03;;;;;;;3.28;1.27;;;;;;;;;;5033318;28;20033;-41
2021/11/02 02:49:28;;;;;;;2.58;0.80;;;;;;;;;;5036986;28;20106;-43
2021/11/02 02:51:54;;;;;;;2.03;0.77;;;;;;;;;;5039046;28;20473;-42
2021/11/02 02:54:23;;;;;;;5.88;2.08;;;;;;;;;;5034833;28;20044;-40
2021/11/02 02:56:51;;;;;;;5.93;0.65;;;;;;;;;;5037294;28;20244;-40
2021/11/02 02:59:22;;;;;;;4.47;0.85;;;;;;;;;;5037230;28;20029;-41
2021/11/02 03:01:59;;;;;;;1.75;0.90;;;;;;;;;;5037049;28;20029;-43
2021/11/02 03:04:27;;;;;;;2.50;1.23;;;;;;;;;;5038958;28;20171;-43
2021/11/02 03:06:58;;;;;;;3.10;0.98;;;;;;;;;;5036539;28;20385;-43
2021/11/02 03:09:29;;;;;;;3.45;0.93;;;;;;;;;;5035544;28;20049;-46
2021/11/02 03:11:56;;;;;;;0.82;0.65;;;;;;;;;;5036426;28;20113;-46
2021/11/02 03:14:33;;;;;;;1.17;0.60;;;;;;;;;;5039899;28;20036;-44
2021/11/02 03:17:11;;;;;;;2.63;0.60;;;;;;;;;;5034830;28;20550;-47
2021/11/02 03:54:51;;;;;;;2.47;0.70;;;;;;;;;;5034271;28;20040;-45
2021/11/02 04:30:38;;;;;;;3.75;0.90;;;;;;;;;;5031737;28;20028;-39
2021/11/02 04:46:52;;;;;;;1.92;0.28;;;;;;;;;;5033200;28;20099;-41
2021/11/02 05:59:53;;;;;;;4.47;1.55;;;;;;;;;;5044342;28;20388;-43
2021/11/02 06:05:27;;;;;;;4.55;1.08;;;;;;;;;;5042339;28;20036;-43
2021/11/02 06:08:23;;;;;;;2.63;1.20;;;;;;;;;;5039627;28;20036;-45
2021/11/02 06:11:16;;;;;;;3.45;1.67;;;;;;;;;;5041174;28;20221;-41
2021/11/02 06:28:04;;;;;;;9.75;6.90;;;;;;;;;;5036031;28;20119;-43
2021/11/02 06:30:35;;;;;;;6.60;3.80;;;;;;;;;;5038934;28;20512;-40
2021/11/02 06:33:08;;;;;;;7.97;1.67;;;;;;;;;;5037906;28;20036;-40
2021/11/02 06:36:49;;;;;;;5.70;1.27;;;;;;;;;;5036343;28;20013;-41
2021/11/02 06:49:26;;;;;;;15.30;10.73;;;;;;;;;;5033421;28;20469;-41
2021/11/02 07:00:12;;;;;;;5.50;1.58;;;;;;;;;;5035290;28;20055;-48
2021/11/02 07:19:30;;;;;;;5.68;1.90;;;;;;;;;;5058058;28;20037;-40
2021/11/02 07:27:01;;;;;;;6.03;1.65;;;;;;;;;;5033344;28;20049;-42
2021/11/02 08:47:09;;;;;;;9.18;5.60;;;;;;;;;;5031514;28;20071;-45
2021/11/02 08:49:39;;;;;;;10.48;3.75;;;;;;;;;;5034647;28;20117;-48
2021/11/02 08:52:05;;;;;;;11.50;4.00;;;;;;;;;;5034406;28;20406;-52
2021/11/02 08:54:31;;;;;;;12.23;4.60;;;;;;;;;;5034514;28;20257;-46
2021/11/02 08:56:56;;;;;;;12.00;3.05;;;;;;;;;;5034392;28;20036;-51
2021/11/02 08:59:22;;;;;;;2.22;1.42;;;;;;;;;;5032415;28;20025;-54
2021/11/02 09:01:49;;;;;;;27.15;4.53;;;;;;;;;;5035692;28;20024;-52
2021/11/02 09:04:16;;;;;;;12.45;5.55;;;;;;;;;;5033781;28;20413;-53
2021/11/02 09:06:41;;;;;;;5.68;3.70;;;;;;;;;;5032193;28;20038;-52
2021/11/02 09:09:07;;;;;;;9.82;4.53;;;;;;;;;;5034590;28;20020;-54
2021/11/02 09:11:34;;;;;;;12.20;4.60;;;;;;;;;;5038363;28;20049;-53
2021/11/02 09:13:59;;;;;;;7.25;3.13;;;;;;;;;;5034605;28;20469;-50
2021/11/02 09:16:26;;;;;;;11.98;5.18;;;;;;;;;;5035179;28;20026;-54
2021/11/02 09:18:52;;;;;;;12.52;6.13;;;;;;;;;;5036067;28;20125;-54
2021/11/02 09:21:18;;;;;;;15.60;9.32;;;;;;;;;;5036025;28;20069;-58
2021/11/02 09:23:44;;;;;;;15.43;7.65;;;;;;;;;;5030469;28;20048;-52
2021/11/02 09:26:10;;;;;;;15.75;10.18;;;;;;;;;;5034179;28;20450;-53
2021/11/02 09:28:35;;;;;;;19.75;7.05;;;;;;;;;;5029904;28;20100;-51
2021/11/02 09:31:01;;;;;;;9.18;6.32;;;;;;;;;;5032830;28;20102;-47
2021/11/02 09:33:26;;;;;;;11.05;5.10;;;;;;;;;;5034622;28;20115;-48
2021/11/02 09:35:59;;;;;;;7.45;4.35;;;;;;;;;;5035117;28;20018;-49
2021/11/02 09:38:30;;;;;;;11.63;6.97;;;;;;;;;;5035056;28;20544;-52
2021/11/02 09:41:01;;;;;;;11.18;3.15;;;;;;;;;;5033827;28;20082;-51
2021/11/02 09:43:30;;;;;;;6.35;2.92;;;;;;;;;;5036913;28;20033;-47
2021/11/02 09:45:59;;;;;;;7.43;4.47;;;;;;;;;;5037167;28;20021;-49
2021/11/02 09:48:39;;;;;;;2.65;1.63;;;;;;;;;;5037618;28;20574;-51
2021/11/02 09:51:25;;;;;;;1.67;1.10;;;;;;;;;;5033032;28;20026;-47
2021/11/02 09:53:57;;;;;;;4.95;1.77;;;;;;;;;;5018980;28;20029;-46
2021/11/02 09:56:30;;;;;;;4.22;1.27;;;;;;;;;;5038108;28;20097;-47
2021/11/02 09:59:04;;;;;;;4.63;1.05;;;;;;;;;;5039201;28;20047;-44
2021/11/02 10:01:32;;;;;;;2.95;1.00;;;;;;;;;;5037989;28;20029;-48
2021/11/02 10:04:18;;;;;;;8.63;1.67;;;;;;;;;;5037576;28;20013;-45
2021/11/02 10:07:13;;;;;;;4.95;2.60;;;;;;;;;;5037414;28;20130;-44
2021/11/02 10:09:58;;;;;;;12.43;1.27;;;;;;;;;;5024207;28;20039;-44
2021/11/02 10:12:28;;;;;;;1.65;1.42;;;;;;;;;;5037269;28;20112;-44
2021/11/02 10:15:05;;;;;;;6.10;4.25;;;;;;;;;;5036006;28;20029;-43
2021/11/02 10:17:32;;;;;;;9.73;1.65;;;;;;;;;;5042712;28;20611;-43
2021/11/02 10:20:04;;;;;;;2.72;1.63;;;;;;;;;;5034938;28;20029;-44
2021/11/02 10:22:32;;;;;;;1.42;0.60;;;;;;;;;;5037729;28;20031;-46
2021/11/02 10:25:03;;;;;;;8.60;1.83;;;;;;;;;;5036994;28;20022;-46
2021/11/02 10:27:30;;;;;;;;;;;;;;;;;;5038287;28;20029;-44
2021/11/02 10:30:06;;;;;;;4.95;1.40;;;;;;;;;;5036564;28;19947;-43
2021/11/02 10:32:31;;;;;;;2.30;0.95;;;;;;;;;;5037852;28;20041;-44
2021/11/02 10:35:15;;;;;;;6.60;1.80;;;;;;;;;;5038611;28;20017;-47
2021/11/02 10:37:47;;;;;;;8.18;1.58;;;;;;;;;;5046158;28;20353;-48
2021/11/02 10:40:20;;;;;;;3.78;1.65;;;;;;;;;;5038062;28;20020;-49
2021/11/02 10:43:08;;;;;;;5.57;3.05;;;;;;;;;;5041029;28;20017;-47
2021/11/02 10:45:34;;;;;;;3.40;1.13;;;;;;;;;;5037034;28;20071;-46
2021/11/02 10:48:03;;;;;;;5.30;1.75;;;;;;;;;;5041848;28;20045;-47
2021/11/02 10:50:37;;;;;;;7.55;1.25;;;;;;;;;;5036440;28;20049;-50
2021/11/02 10:53:07;;;;;;;13.77;3.50;;;;;;;;;;5037009;28;20147;-45
2021/11/02 10:55:40;;;;;;;16.80;3.25;;;;;;;;;;5034357;28;20026;-48
2021/11/02 10:58:25;;;;;;;2.00;1.10;;;;;;;;;;5035683;28;20018;-45
2021/11/02 11:00:50;;;;;;;4.45;1.25;;;;;;;;;;5035199;28;20079;-46
2021/11/02 11:03:21;;;;;;;63.80;8.38;;;;;;;;;;5033367;28;20072;-48
2021/11/02 11:05:46;;;;;;;;;;;;;;;;;;5034950;28;20028;-47
2021/11/02 11:08:14;;;;;;;2.10;0.87;;;;;;;;;;5036260;28;19905;-48
2021/11/02 11:10:39;;;;;;;3.55;0.60;;;;;;;;;;5036930;28;20099;-41
2021/11/02 11:13:09;;;;;;;7.75;1.20;;;;;;;;;;5037239;28;20540;-43
2021/11/02 11:15:35;;;;;;;2.78;1.25;;;;;;;;;;5038566;28;20044;-48
2021/11/02 11:18:04;;;;;;;19.75;1.88;;;;;;;;;;5037811;28;20021;-51
2021/11/02 11:20:31;;;;;;;9.55;2.38;;;;;;;;;;5037517;28;20503;-51
2021/11/02 11:22:58;;;;;;;2.92;1.17;;;;;;;;;;5035916;28;20112;-44
2021/11/02 11:25:28;;;;;;;7.43;0.88;;;;;;;;;;5033996;28;20021;-43
2021/11/02 11:27:55;;;;;;;3.17;0.82;;;;;;;;;;5040130;28;20013;-46
2021/11/02 11:30:21;;;;;;;4.20;0.65;;;;;;;;;;5037235;28;20126;-47
2021/11/02 11:32:48;;;;;;;2.95;1.38;;;;;;;;;;5037631;28;20037;-43
2021/11/02 11:35:14;;;;;;;0.82;0.47;;;;;;;;;;5037146;28;20036;-46
2021/11/02 11:37:43;;;;;;;2.55;0.80;;;;;;;;;;5033523;28;20057;-46
2021/11/02 11:40:14;;;;;;;2.17;0.80;;;;;;;;;;5037349;28;20021;-45
2021/11/02 11:42:39;;;;;;;8.48;1.75;;;;;;;;;;5037020;28;20140;-48
2021/11/02 11:45:12;;;;;;;3.90;0.77;;;;;;;;;;5034331;28;20100;-46
2021/11/02 11:47:37;;;;;;;12.48;1.95;;;;;;;;;;5035035;28;20691;-49
2021/11/02 11:50:12;;;;;;;0.93;0.43;;;;;;;;;;5033686;28;20108;-45
2021/11/02 11:52:43;;;;;;;2.78;0.88;;;;;;;;;;5034977;28;20049;-43
2021/11/02 11:55:09;;;;;;;5.80;0.80;;;;;;;;;;5034056;28;20030;-45
2021/11/02 11:57:36;;;;;;;5.68;1.15;;;;;;;;;;5035319;28;20029;-45
2021/11/02 12:00:05;;;;;;;8.57;1.60;;;;;;;;;;5039213;28;20021;-44
2021/11/02 12:02:32;;;;;;;6.53;0.70;;;;;;;;;;5036743;28;20481;-46
2021/11/02 12:04:59;;;;;;;6.07;0.75;;;;;;;;;;5036593;28;20017;-45
2021/11/02 12:07:51;;;;;;;1.95;1.27;;;;;;;;;;5039078;28;20018;-45
2021/11/02 12:10:21;;;;;;;7.53;1.45;;;;;;;;;;5032895;28;20052;-48
2021/11/02 12:12:48;;;;;;;1.50;0.80;;;;;;;;;;5034556;28;20160;-46
2021/11/02 12:15:17;;;;;;;0.75;0.40;;;;;;;;;;5035251;28;20021;-44
2021/11/02 12:17:44;;;;;;;3.15;1.65;;;;;;;;;;5035743;28;20076;-47
2021/11/02 12:20:11;;;;;;;4.15;0.88;;;;;;;;;;5039331;28;20075;-45
2021/11/02 12:22:54;;;;;;;3.83;1.50;;;;;;;;;;5035517;28;20052;-45
2021/11/02 12:25:22;;;;;;;6.97;1.40;;;;;;;;;;5036187;28;20009;-45
2021/11/02 12:27:47;;;;;;;4.13;1.27;;;;;;;;;;5034872;28;20124;-46
2021/11/02 12:30:14;;;;;;;2.78;1.27;;;;;;;;;;5035034;28;20132;-44
2021/11/02 12:32:46;;;;;;;4.03;1.20;;;;;;;;;;5038198;28;20086;-50
2021/11/02 12:35:18;;;;;;;2.90;1.08;;;;;;;;;;5031439;28;20285;-48
2021/11/02 12:37:50;;;;;;;7.35;1.58;;;;;;;;;;5034436;28;20099;-46
2021/11/02 12:40:24;;;;;;;6.38;2.38;;;;;;;;;;5034081;28;20013;-45
2021/11/02 12:42:49;;;;;;;2.90;1.15;;;;;;;;;;5034769;28;20340;-47
2021/11/02 12:45:17;;;;;;;4.75;0.60;;;;;;;;;;5032560;28;20508;-46
2021/11/02 12:47:44;;;;;;;3.67;1.50;;;;;;;;;;5036914;28;20077;-45
2021/11/02 12:50:10;;;;;;;4.28;2.13;;;;;;;;;;5037683;28;20044;-46
2021/11/02 12:52:38;;;;;;;3.33;1.20;;;;;;;;;;5033497;28;20040;-46
2021/11/02 12:55:08;;;;;;;9.85;2.03;;;;;;;;;;5037695;28;20022;-45
2021/11/02 12:57:35;;;;;;;0.82;0.40;;;;;;;;;;5032783;28;20046;-45
2021/11/02 13:00:03;;;;;;;4.75;2.67;;;;;;;;;;5033853;28;20032;-45
2021/11/02 13:02:33;;;;;;;8.23;1.58;;;;;;;;;;5036187;28;20021;-44
2021/11/02 13:05:05;;;;;;;6.30;2.83;;;;;;;;;;5033319;28;20056;-48
2021/11/02 13:07:35;;;;;;;1.10;0.70;;;;;;;;;;5033072;28;20029;-44
2021/11/02 13:10:01;;;;;;;4.70;2.30;;;;;;;;;;5030336;28;20079;-46
2021/11/02 13:12:26;;;;;;;1.63;0.75;;;;;;;;;;5037533;28;20416;-45
2021/11/02 13:14:52;;;;;;;2.20;1.00;;;;;;;;;;5034503;28;20021;-47
2021/11/02 13:17:20;;;;;;;1.08;0.35;;;;;;;;;;5035140;28;20021;-48
2021/11/02 13:19:47;;;;;;;1.75;1.27;;;;;;;;;;5032539;28;20021;-50
2021/11/02 13:22:20;;;;;;;3.35;1.35;;;;;;;;;;5036204;28;20029;-50
2021/11/02 13:24:55;;;;;;;2.28;1.10;;;;;;;;;;5037797;28;20686;-49
2021/11/02 13:27:28;;;;;;;1.98;0.82;;;;;;;;;;5036454;28;20036;-50
2021/11/02 13:29:53;;;;;;;5.03;1.55;;;;;;;;;;5042205;28;20022;-50
2021/11/02 13:32:19;;;;;;;5.78;1.55;;;;;;;;;;5038495;28;20482;-48
2021/11/02 13:34:44;;;;;;;7.50;1.33;;;;;;;;;;5034470;28;20029;-47
2021/11/02 13:37:11;;;;;;;6.70;1.15;;;;;;;;;;5040652;28;20049;-52
2021/11/02 13:39:49;;;;;;;5.82;1.95;;;;;;;;;;5035704;28;20112;-45
2021/11/02 13:42:15;;;;;;;4.13;1.38;;;;;;;;;;5038202;28;20141;-51
2021/11/02 13:44:41;;;;;;;5.38;1.80;;;;;;;;;;5037472;28;20048;-47
2021/11/02 13:47:09;;;;;;;2.15;1.15;;;;;;;;;;5036396;28;20103;-50
2021/11/02 13:49:35;;;;;;;3.42;0.90;;;;;;;;;;5039693;28;20535;-48
2021/11/02 13:52:00;;;;;;;2.72;1.52;;;;;;;;;;5036817;28;20053;-53
2021/11/02 13:54:26;;;;;;;8.18;1.65;;;;;;;;;;5038056;28;20025;-52
2021/11/02 13:56:51;;;;;;;7.72;2.03;;;;;;;;;;5036951;28;20651;-56
2021/11/02 13:59:16;;;;;;;6.93;1.65;;;;;;;;;;5038381;28;20079;-53
2021/11/02 14:01:46;;;;;;;3.10;1.17;;;;;;;;;;5038750;28;20025;-53
2021/11/02 14:04:22;;;;;;;3.92;1.90;;;;;;;;;;5039595;28;20029;-50
2021/11/02 14:06:49;;;;;;;4.90;0.95;;;;;;;;;;5036111;28;20025;-51
2021/11/02 14:09:15;;;;;;;2.78;1.00;;;;;;;;;;5036344;28;20445;-52
2021/11/02 14:11:41;;;;;;;1.60;1.00;;;;;;;;;;5039987;28;20079;-56
2021/11/02 14:14:27;;;;;;;4.10;1.23;;;;;;;;;;5035744;28;20025;-56
2021/11/02 14:16:52;;;;;;;6.22;1.38;;;;;;;;;;5040464;28;20025;-54
2021/11/02 14:19:33;;;;;;;5.20;1.52;;;;;;;;;;5038433;28;20025;-53
2021/11/02 14:21:58;;;;;;;2.58;1.05;;;;;;;;;;5036443;28;20021;-50
2021/11/02 14:24:31;;;;;;;6.72;1.73;;;;;;;;;;5041596;28;20032;-53
2021/11/02 14:26:57;;;;;;;14.82;1.55;;;;;;;;;;5041552;28;20435;-51
2021/11/02 14:29:41;;;;;;;1.30;0.73;;;;;;;;;;5040949;28;20017;-53
2021/11/02 14:32:06;;;;;;;3.00;1.10;;;;;;;;;;5041146;28;20552;-52
2021/11/02 14:34:37;;;;;;;3.65;1.23;;;;;;;;;;5039216;28;20647;-50
2021/11/02 14:37:03;;;;;;;;;;;;;;;;;;5040480;28;20137;-51
2021/11/02 14:39:46;;;;;;;3.65;1.25;;;;;;;;;;5041505;28;20364;-49
2021/11/02 14:42:32;;;;;;;2.25;1.05;;;;;;;;;;5041302;28;20040;-49
2021/11/02 14:44:57;;;;;;;6.93;1.17;;;;;;;;;;5041177;28;20020;-51
2021/11/02 14:47:33;;;;;;;3.60;1.00;;;;;;;;;;5043306;28;20487;-53
2021/11/02 14:49:58;;;;;;;7.95;1.70;;;;;;;;;;5039185;28;20094;-48
2021/11/02 14:52:25;;;;;;;9.63;3.78;;;;;;;;;;5045112;28;20082;-51
2021/11/02 14:54:50;;;;;;;7.18;5.65;;;;;;;;;;5037171;28;20028;-52
2021/11/02 14:57:18;;;;;;;7.45;6.15;;;;;;;;;;5039904;28;20025;-50
2021/11/02 14:59:48;;;;;;;16.77;8.77;;;;;;;;;;5037722;28;20021;-49
2021/11/02 15:02:15;;;;;;;8.85;6.75;;;;;;;;;;5035536;28;20025;-50
2021/11/02 15:04:41;;;;;;;9.50;5.60;;;;;;;;;;5039293;28;20021;-50
2021/11/02 15:07:07;;;;;;;11.38;6.28;;;;;;;;;;5037455;28;20033;-53
2021/11/02 15:09:34;;;;;;;5.95;4.65;;;;;;;;;;5047771;28;20028;-54
2021/11/02 15:12:00;;;;;;;17.80;3.88;;;;;;;;;;5042974;28;20737;-53
2021/11/02 15:14:30;;;;;;;11.43;5.88;;;;;;;;;;5039267;28;20025;-53
2021/11/02 15:17:03;;;;;;;10.73;4.30;;;;;;;;;;5036446;28;20025;-45
2021/11/02 15:19:29;;;;;;;9.23;2.10;;;;;;;;;;5036884;28;20075;-52
2021/11/02 15:21:56;;;;;;;17.15;2.72;;;;;;;;;;5037515;28;20028;-54
2021/11/02 15:24:23;;;;;;;5.07;2.05;;;;;;;;;;5033967;28;20052;-51
2021/11/02 15:26:48;;;;;;;6.95;3.60;;;;;;;;;;5034087;28;20082;-49
2021/11/02 15:29:14;;;;;;;8.93;4.28;;;;;;;;;;5041127;28;20021;-56
2021/11/02 15:31:40;;;;;;;21.23;4.93;;;;;;;;;;5037032;28;20033;-55
2021/11/02 15:34:15;;;;;;;6.80;3.90;;;;;;;;;;5038324;28;20502;-54
2021/11/02 15:36:42;;;;;;;9.10;3.25;;;;;;;;;;5036696;28;20047;-55
2021/11/02 15:39:08;;;;;;;6.82;3.95;;;;;;;;;;5036020;28;20017;-50
2021/11/02 15:41:33;;;;;;;8.30;5.03;;;;;;;;;;5033244;28;20057;-55
2021/11/02 15:44:02;;;;;;;4.65;2.60;;;;;;;;;;5037956;28;20563;-53
2021/11/02 15:46:33;;;;;;;8.57;2.92;;;;;;;;;;5034716;28;20121;-49
2021/11/02 15:48:59;;;;;;;25.53;20.97;;;;;;;;;;5036640;28;20049;-49
2021/11/02 15:51:26;;;;;;;6.20;2.90;;;;;;;;;;5041714;28;20394;-50
2021/11/02 15:53:53;;;;;;;4.80;1.90;;;;;;;;;;5034199;28;20033;-48
2021/11/02 15:56:22;;;;;;;3.47;2.38;;;;;;;;;;5036881;28;20017;-46
2021/11/02 15:58:54;;;;;;;6.20;2.50;;;;;;;;;;5034931;28;20029;-45
2021/11/02 16:01:30;;;;;;;29.83;12.02;;;;;;;;;;5033295;28;20509;-47
2021/11/02 16:04:09;;;;;;;27.95;11.80;;;;;;;;;;5037122;28;20460;-47
2021/11/02 16:06:35;;;;;;;20.52;9.90;;;;;;;;;;5034232;28;20006;-49
2021/11/02 16:09:04;;;;;;;9.57;4.75;;;;;;;;;;5036394;28;20490;-52
2021/11/02 16:11:29;;;;;;;14.18;5.35;;;;;;;;;;5036477;28;20053;-50
2021/11/02 16:13:54;;;;;;;13.88;4.88;;;;;;;;;;5034860;28;20124;-48
2021/11/02 16:16:20;;;;;;;11.38;4.05;;;;;;;;;;5035776;28;20022;-52
2021/11/02 16:18:45;;;;;;;7.88;4.63;;;;;;;;;;5037113;28;20040;-53
2021/11/02 16:21:11;;;;;;;10.68;6.20;;;;;;;;;;5036594;28;20021;-49
2021/11/02 16:23:42;;;;;;;7.03;4.10;;;;;;;;;;5036774;28;20068;-52
2021/11/02 16:26:11;;;;;;;8.73;5.03;;;;;;;;;;5036118;28;20056;-49
2021/11/02 16:28:36;;;;;;;8.90;4.95;;;;;;;;;;5032477;28;20107;-49
2021/11/02 16:31:05;;;;;;;10.88;5.32;;;;;;;;;;5033705;28;20127;-50
2021/11/02 16:33:31;;;;;;;12.00;4.45;;;;;;;;;;5034477;28;20496;-54
2021/11/02 16:35:57;;;;;;;5.47;4.45;;;;;;;;;;5036638;28;20048;-49
2021/11/02 16:38:22;;;;;;;14.88;5.07;;;;;;;;;;5033260;28;20021;-52
2021/11/02 16:40:52;;;;;;;14.48;4.70;;;;;;;;;;5034023;28;20140;-54
2021/11/02 16:43:25;;;;;;;13.30;8.90;;;;;;;;;;5034947;28;20488;-51
2021/11/02 16:45:50;;;;;;;6.90;3.92;;;;;;;;;;5033340;28;20040;-49
2021/11/02 16:48:16;;;;;;;3.80;2.60;;;;;;;;;;5038155;28;20061;-51
2021/11/02 16:50:42;;;;;;;8.50;2.00;;;;;;;;;;5034328;28;20033;-52
2021/11/02 16:53:16;;;;;;;6.75;2.80;;;;;;;;;;5037066;28;20044;-51
2021/11/02 16:55:42;;;;;;;13.32;6.93;;;;;;;;;;5042503;28;20033;-43
2021/11/02 16:58:22;;;;;;;17.40;5.50;;;;;;;;;;5034325;28;20025;-40
2021/11/02 17:00:48;;;;;;;4.77;3.43;;;;;;;;;;5035895;28;20016;-46
2021/11/02 17:03:15;;;;;;;10.00;3.75;;;;;;;;;;5036657;28;20020;-42
2021/11/02 17:05:41;;;;;;;5.57;3.08;;;;;;;;;;5035375;28;20110;-41
2021/11/02 17:08:14;;;;;;;4.80;3.28;;;;;;;;;;5034954;28;20021;-43
2021/11/02 17:10:39;;;;;;;6.00;1.92;;;;;;;;;;5032851;28;20024;-40
2021/11/02 17:13:14;;;;;;;5.22;3.15;;;;;;;;;;5036545;28;20033;-44
2021/11/02 17:15:50;;;;;;;6.57;3.65;;;;;;;;;;5035556;28;20021;-45
2021/11/02 17:18:38;;;;;;;16.55;9.95;;;;;;;;;;5035561;28;20017;-45
2021/11/02 17:21:05;;;;;;;6.40;2.55;;;;;;;;;;5021154;28;20337;-45
2021/11/02 17:23:30;;;;;;;4.32;2.60;;;;;;;;;;5034044;28;20021;-40
2021/11/02 17:25:56;;;;;;;7.63;3.03;;;;;;;;;;5034227;28;20024;-41
2021/11/02 17:28:21;;;;;;;7.55;3.72;;;;;;;;;;5033378;28;20714;-44
2021/11/02 17:30:47;;;;;;;4.47;3.22;;;;;;;;;;5031006;28;20029;-47
2021/11/02 17:33:12;;;;;;;13.85;3.72;;;;;;;;;;5034366;28;20116;-45
2021/11/02 17:35:37;;;;;;;4.32;1.67;;;;;;;;;;5032637;28;20018;-44
2021/11/02 17:38:04;;;;;;;9.18;2.75;;;;;;;;;;5036526;28;20036;-43
2021/11/02 17:40:29;;;;;;;3.88;2.17;;;;;;;;;;5034239;28;20028;-43
2021/11/02 17:42:56;;;;;;;3.65;2.22;;;;;;;;;;5032963;28;20022;-41
2021/11/02 17:45:22;;;;;;;15.98;3.33;;;;;;;;;;5030623;28;20065;-43
2021/11/02 17:47:49;;;;;;;7.18;4.15;;;;;;;;;;5032348;28;20041;-45
2021/11/02 17:50:16;;;;;;;5.78;2.78;;;;;;;;;;5034044;28;20026;-41
2021/11/02 17:52:41;;;;;;;8.27;2.42;;;;;;;;;;5033580;28;20101;-41
2021/11/02 17:55:08;;;;;;;12.57;3.75;;;;;;;;;;5032564;28;20140;-45
2021/11/02 17:57:47;;;;;;;7.25;5.72;;;;;;;;;;5031961;28;20013;-42
2021/11/02 18:00:14;;;;;;;7.20;3.58;;;;;;;;;;5033274;28;20696;-42
2021/11/02 18:02:39;;;;;;;13.48;3.53;;;;;;;;;;5037199;28;20063;-41
2021/11/02 18:05:05;;;;;;;5.60;2.08;;;;;;;;;;5032674;28;20024;-42
2021/11/02 18:07:31;;;;;;;4.75;2.00;;;;;;;;;;5034020;28;20370;-43
2021/11/02 18:09:57;;;;;;;4.65;2.28;;;;;;;;;;5038191;28;20025;-44
2021/11/02 18:12:23;;;;;;;6.03;2.53;;;;;;;;;;5036425;28;20600;-42
2021/11/02 18:14:49;;;;;;;3.58;2.47;;;;;;;;;;5034946;28;20028;-46
2021/11/02 18:17:15;;;;;;;5.65;3.75;;;;;;;;;;5039005;28;20013;-41
2021/11/02 18:19:40;;;;;;;9.68;7.47;;;;;;;;;;5033530;28;20469;-42
2021/11/02 18:22:06;;;;;;;8.38;7.22;;;;;;;;;;5038649;28;20082;-44
2021/11/02 18:24:35;;;;;;;7.80;6.32;;;;;;;;;;5037714;28;20026;-43
2021/11/02 18:27:00;;;;;;;12.90;7.47;;;;;;;;;;5038861;28;20119;-42
2021/11/02 18:29:26;;;;;;;7.32;5.97;;;;;;;;;;5037237;28;20029;-47
2021/11/02 18:31:52;;;;;;;9.65;4.93;;;;;;;;;;5039579;28;20957;-45
2021/11/02 18:34:17;;;;;;;4.45;2.15;;;;;;;;;;5038945;28;20106;-42
2021/11/02 18:36:44;;;;;;;5.75;2.30;;;;;;;;;;5037494;28;20029;-43
2021/11/02 18:39:10;;;;;;;4.32;1.65;;;;;;;;;;5036242;28;20017;-42
2021/11/02 18:41:35;;;;;;;6.50;2.85;;;;;;;;;;5035027;28;20029;-43
2021/11/02 18:44:01;;;;;;;5.10;2.53;;;;;;;;;;5034127;28;20120;-47
2021/11/02 18:46:26;;;;;;;6.00;3.22;;;;;;;;;;5034467;28;20124;-47
2021/11/02 18:48:52;;;;;;;2.95;1.80;;;;;;;;;;5037654;28;20475;-43
2021/11/02 18:51:17;;;;;;;3.42;2.92;;;;;;;;;;5036206;28;20373;-42
2021/11/02 18:53:43;;;;;;;3.60;2.70;;;;;;;;;;5041647;28;20028;-43
2021/11/02 18:56:08;;;;;;;6.78;4.20;;;;;;;;;;5035917;28;20020;-43
2021/11/02 18:58:34;;;;;;;2.47;1.98;;;;;;;;;;5039403;28;20030;-43
2021/11/02 19:00:59;;;;;;;5.90;2.75;;;;;;;;;;5037710;28;20091;-41
2021/11/02 19:03:25;;;;;;;2.78;1.40;;;;;;;;;;5036946;28;20029;-43
2021/11/02 19:05:51;;;;;;;6.00;1.77;;;;;;;;;;5035730;28;20028;-44
2021/11/02 19:08:17;;;;;;;9.18;2.05;;;;;;;;;;5037097;28;20029;-42
2021/11/02 19:10:43;;;;;;;5.72;1.48;;;;;;;;;;5034860;28;20335;-45
2021/11/02 19:13:09;;;;;;;4.90;2.67;;;;;;;;;;5034072;28;20022;-41
2021/11/02 19:15:35;;;;;;;5.53;2.75;;;;;;;;;;5037459;28;20025;-43
2021/11/02 19:18:01;;;;;;;5.18;1.98;;;;;;;;;;5033949;28;20296;-46
2021/11/02 19:20:26;;;;;;;3.97;1.45;;;;;;;;;;5034164;28;20277;-47
2021/11/02 19:22:51;;;;;;;2.50;1.10;;;;;;;;;;5033432;28;20712;-48
2021/11/02 19:25:17;;;;;;;3.13;1.27;;;;;;;;;;5033467;28;20483;-47
2021/11/02 19:27:42;;;;;;;4.43;1.63;;;;;;;;;;5035294;28;20017;-43
2021/11/02 19:30:09;;;;;;;2.60;1.92;;;;;;;;;;5035886;28;20087;-48
2021/11/02 19:32:34;;;;;;;2.28;1.67;;;;;;;;;;5037023;28;20025;-45
2021/11/02 19:35:01;;;;;;;9.75;3.60;;;;;;;;;;5037027;28;20029;-45
2021/11/02 19:37:26;;;;;;;6.10;4.15;;;;;;;;;;5035830;28;20021;-48
2021/11/02 19:39:51;;;;;;;8.40;4.20;;;;;;;;;;5035159;28;20061;-49